KTCC/TCC METAR and TAF weather

Enter ICAO airport designator
Station Type Date Time Source
KTCC METAR 2018/12/15 03:53 UTC NOAA

KTCC 150353Z AUTO 00000KT 10SM CLR M02/M11 A3024 RMK AO2 SLP253 T10221111


Station Type Date Time Source
KTCC Decoded METAR 2018/12/15 03:53 UTC NOAA

TUCUMCARI MUNICIPAL AIRPORT , NM, United States (KTCC) 35-11N 103-36W 1235M
Dec 14, 2018 - 10:53 PM EST / 2018.12.15 0353 UTC
Wind: Calm:0
Visibility: 10 mile(s):0
Sky conditions: clear
Temperature: 28.0 F (-2.2 C)
Dew Point: 12.0 F (-11.1 C)
Relative Humidity: 50%
Pressure (altimeter): 30.24 in. Hg (1024 hPa)
ob: KTCC 150353Z AUTO 00000KT 10SM CLR M02/M11 A3024 RMK AO2 SLP253 T10221111
cycle: 4

Station Type Date Time Source
KTCC TAF 2018/12/14 18:24 UTC NOAA

TAF KTCC 141721Z 1418/1518 27007KT P6SM SKC
FM150100 25008KT P6SM SCT250
FM151600 25012KT P6SM BKN200


Example: see airport list